Energy Champion — MJUZ7 — position and weather

sailwx.info

Track history (hours):
 
Tides and Currents Weather Stations Pressure Air Temp Water Temp Dewpoint Dewpoint Depression Visibility Wind Speed Wind Dir Waves Ship Positions

Energy Champion

Last reported at 2015-Jun-30 09:19 UTC. Time now 2015-Jul-08 00:08 UTC.
Position N 01°59' E 102°15'.

Length 228 m; draft 8 m.

Type: Tanker. MMSI: 235009420.

Date/timePositionNaut miles runAvg speedWind from/ knotsBaromVisibWave heightAir tempDewpointWater temp
2015-Jun-30 09:19N 01°59' E 102°15'1114.2
2015-Jun-30 08:32N 01°53' E 102°25'1515.0
2015-Jun-30 07:33N 01°47' E 102°38'7113.8
2015-Jun-30 02:25N 01°11' E 103°39'9 9.4
2015-Jun-30 01:27N 01°11' E 103°48'3 3.3
2015-Jun-30 00:28N 01°14' E 103°48'0 0.1
2015-Jun-29 23:22N 01°14' E 103°48'0 0.0
2015-Jun-29 22:28N 01°14' E 103°48'0 0.0
2015-Jun-29 21:22N 01°14' E 103°48'0 0.0
2015-Jun-29 20:33N 01°14' E 103°48'5 5.2
2015-Jun-29 19:33N 01°17' E 103°44'0 0.5
2015-Jun-29 18:32N 01°17' E 103°44'0 0.0
2015-Jun-29 17:29N 01°17' E 103°44'0 0.0
2015-Jun-29 16:32N 01°17' E 103°44'0 0.0
2015-Jun-29 15:29N 01°17' E 103°44'0 0.0
2015-Jun-29 14:32N 01°17' E 103°44'0 0.0
2015-Jun-29 13:23N 01°17' E 103°44'0 0.0
2015-Jun-29 12:29N 01°17' E 103°44'0 0.0
2015-Jun-29 11:20N 01°17' E 103°44'0 0.0
2015-Jun-29 10:32N 01°17' E 103°44'0 0.0
2015-Jun-29 09:32N 01°17' E 103°44'0 0.0
2015-Jun-29 08:29N 01°17' E 103°44'0 0.0
2015-Jun-29 07:32N 01°17' E 103°44'0 0.0
2015-Jun-29 06:14N 01°17' E 103°44'0 0.0
2015-Jun-29 05:26N 01°17' E 103°44'0 0.0
2015-Jun-29 04:32N 01°17' E 103°44'0 0.0
2015-Jun-29 03:32N 01°17' E 103°44'0 0.0
2015-Jun-29 02:29N 01°17' E 103°44'0 0.0
2015-Jun-29 01:32N 01°17' E 103°44'0 0.0
2015-Jun-28 23:32N 01°17' E 103°44'0 0.0
2015-Jun-28 22:29N 01°17' E 103°44'0 0.0
2015-Jun-28 21:32N 01°17' E 103°44'0 0.0
2015-Jun-28 20:32N 01°17' E 103°44'0 0.0
2015-Jun-28 19:23N 01°17' E 103°44'0 0.0
2015-Jun-28 18:32N 01°17' E 103°44'0 0.0
2015-Jun-28 17:23N 01°17' E 103°44'0 0.0
2015-Jun-28 16:32N 01°17' E 103°44'0 0.0
2015-Jun-28 15:32N 01°17' E 103°44'0 0.0
2015-Jun-28 14:23N 01°17' E 103°44'0 0.0
2015-Jun-28 13:32N 01°17' E 103°44'0 0.0
2015-Jun-28 12:32N 01°17' E 103°44'0 0.0
2015-Jun-28 11:29N 01°17' E 103°44'0 0.0
2015-Jun-28 10:08N 01°17' E 103°44'0 0.0
2015-Jun-28 09:17N 01°17' E 103°44'0 0.0
2015-Jun-28 08:20N 01°17' E 103°44'0 0.0
2015-Jun-28 07:32N 01°17' E 103°44'0 0.0
2015-Jun-28 05:26N 01°17' E 103°44'0 0.0
2015-Jun-28 04:32N 01°17' E 103°44'0 0.0
2015-Jun-28 03:20N 01°17' E 103°44'0 0.0
2015-Jun-28 01:32N 01°17' E 103°44'0 0.0
2015-Jun-28 00:26N 01°17' E 103°44'0 0.0
2015-Jun-27 23:32N 01°17' E 103°44'0 0.0
2015-Jun-27 22:32N 01°17' E 103°44'0 0.0
2015-Jun-27 21:29N 01°17' E 103°44'0 0.0
2015-Jun-27 20:29N 01°17' E 103°44'0 0.0
2015-Jun-27 19:26N 01°17' E 103°44'0 0.0
2015-Jun-27 18:23N 01°17' E 103°44'0 0.0
2015-Jun-27 17:29N 01°17' E 103°44'0 0.0
2015-Jun-27 15:26N 01°17' E 103°44'0 0.0
2015-Jun-27 14:26N 01°17' E 103°44'0 0.0
2015-Jun-27 13:20N 01°17' E 103°44'0 0.0
2015-Jun-27 12:23N 01°17' E 103°44'0 0.0
2015-Jun-27 11:32N 01°17' E 103°44'0 0.0
2015-Jun-27 10:32N 01°17' E 103°44'0 0.0
2015-Jun-27 09:32N 01°17' E 103°44'0 0.0
2015-Jun-27 08:26N 01°17' E 103°44'0 0.0
2015-Jun-27 07:23N 01°17' E 103°44'0 0.0
2015-Jun-27 06:29N 01°17' E 103°44'0 0.0
2015-Jun-27 05:32N 01°17' E 103°44'0 0.0
2015-Jun-27 04:26N 01°17' E 103°44'0 0.0
2015-Jun-27 03:32N 01°17' E 103°44'0 0.0
2015-Jun-27 02:29N 01°17' E 103°44'1 0.8
2015-Jun-27 01:33N 01°17' E 103°45'3 3.2
2015-Jun-27 00:33N 01°15' E 103°47'2 1.6
2015-Jun-26 23:17N 01°13' E 103°48'0 0.0
2015-Jun-26 22:29N 01°13' E 103°48'0 0.0
2015-Jun-26 21:29N 01°13' E 103°48'0 0.0
2015-Jun-26 20:29N 01°13' E 103°48'0 0.0
2015-Jun-26 19:29N 01°13' E 103°48'0 0.1
2015-Jun-26 18:29N 01°13' E 103°48'0 0.0
2015-Jun-26 17:29N 01°13' E 103°48'0 0.1
2015-Jun-26 16:14N 01°13' E 103°48'0 0.6
2015-Jun-26 15:33N 01°13' E 103°48'6 6.0
2015-Jun-26 14:33N 01°14' E 103°42'1 0.0
2015-Jun-24 22:30N 01°14' E 103°42'4 4.0
2015-Jun-24 21:33N 01°16' E 103°45'5 5.1
2015-Jun-24 20:33N 01°13' E 103°49'6 6.4
2015-Jun-24 19:34N 01°14' E 103°55'1 0.7
2015-Jun-24 18:16N 01°15' E 103°55'0 0.1
2015-Jun-24 17:22N 01°15' E 103°55'0 0.0
2015-Jun-24 16:16N 01°15' E 103°55'0 0.0
2015-Jun-24 15:16N 01°15' E 103°55'0 0.0
2015-Jun-24 14:28N 01°15' E 103°55'0 0.0
2015-Jun-24 13:28N 01°15' E 103°55'0 0.0
2015-Jun-24 11:28N 01°15' E 103°55'0 0.0
2015-Jun-24 10:22N 01°15' E 103°55'0 0.0
2015-Jun-24 09:28N 01°15' E 103°55'0 0.1
2015-Jun-24 08:25N 01°15' E 103°55'0 0.0
2015-Jun-24 07:31N 01°15' E 103°55'0 0.0
2015-Jun-24 06:22N 01°15' E 103°55'0 0.0
2015-Jun-24 05:28N 01°15' E 103°55'0 0.0
2015-Jun-24 04:28N 01°15' E 103°55'0 0.0
2015-Jun-24 03:28N 01°15' E 103°55'0 0.0
2015-Jun-24 02:31N 01°15' E 103°55'0 0.0
2015-Jun-24 01:25N 01°15' E 103°55'0 0.0
2015-Jun-24 00:22N 01°15' E 103°55'0 0.0
2015-Jun-23 23:31N 01°15' E 103°55'0 0.0
2015-Jun-23 22:28N 01°15' E 103°55'0 0.0
2015-Jun-23 21:31N 01°15' E 103°55'0 0.0
2015-Jun-23 20:31N 01°15' E 103°55'0 0.1
2015-Jun-23 19:28N 01°15' E 103°55'0 0.0
2015-Jun-23 19:01N 01°15' E 103°55'0 0.0
2015-Jun-22 18:22N 01°15' E 103°55'0 0.1
2015-Jun-22 17:28N 01°15' E 103°55'0 0.1
2015-Jun-22 16:28N 01°15' E 103°55'0 0.0
2015-Jun-22 15:28N 01°15' E 103°55'0 0.0
2015-Jun-22 14:28N 01°15' E 103°55'0 0.0
2015-Jun-22 13:31N 01°15' E 103°55'0 0.0
2015-Jun-22 12:28N 01°15' E 103°55'0 0.1
2015-Jun-22 11:33N 01°15' E 103°55'0 0.0
2015-Jun-22 10:33N 01°15' E 103°55'0 0.1
2015-Jun-22 09:31N 01°15' E 103°55'0 0.0
2015-Jun-22 08:33N 01°15' E 103°55'0 0.0
2015-Jun-22 07:33N 01°15' E 103°55'0 0.0
2015-Jun-22 06:32N 01°15' E 103°55'0 0.1
2015-Jun-22 05:33N 01°15' E 103°55'0 0.0
2015-Jun-22 04:33N 01°15' E 103°55'0 0.0
2015-Jun-22 03:33N 01°15' E 103°55'0 0.0
2015-Jun-22 02:32N 01°15' E 103°55'0 0.0
2015-Jun-22 01:33N 01°15' E 103°55'0 0.0
2015-Jun-22 00:33N 01°15' E 103°55'4 3.9
2015-Jun-21 23:33N 01°13' E 103°52'9 9.1
2015-Jun-21 22:33N 01°17' E 103°44'1 0.0
2015-Jun-20 22:31N 01°18' E 103°43'4 4.5
2015-Jun-20 21:33N 01°15' E 103°47'7 6.5
2015-Jun-20 20:33N 01°14' E 103°53'2 1.8
2015-Jun-20 19:33N 01°16' E 103°54'0 0.0
2015-Jun-20 18:27N 01°16' E 103°54'0 0.1
2015-Jun-20 17:33N 01°16' E 103°54'0 0.2
2015-Jun-20 16:33N 01°16' E 103°54'0 0.0
2015-Jun-20 15:27N 01°16' E 103°54'0 0.0
2015-Jun-20 14:27N 01°16' E 103°54'0 0.0
2015-Jun-20 13:27N 01°16' E 103°54'0 0.0
2015-Jun-20 12:21N 01°16' E 103°54'0 0.1
2015-Jun-20 11:15N 01°16' E 103°54'0 0.0
2015-Jun-20 10:12N 01°16' E 103°54'0 0.0
2015-Jun-20 09:33N 01°16' E 103°54'  
Track history (hours):
 
Tides and Currents Weather Stations Pressure Air Temp Water Temp Dewpoint Dewpoint Depression Visibility Wind Speed Wind Dir Waves Ship Positions

Energy Champion

Last reported at 2015-Jun-30 09:19 UTC. Time now 2015-Jul-08 00:08 UTC.
Position N 01°59' E 102°15'.

Length 228 m; draft 8 m.

Type: Tanker. MMSI: 235009420.

Date/timePositionNaut miles runAvg speedWind from/ knotsBaromVisibWave heightAir tempDewpointWater temp
2015-Jun-30 09:19N 01°59' E 102°15'1114.2
2015-Jun-30 08:32N 01°53' E 102°25'1515.0
2015-Jun-30 07:33N 01°47' E 102°38'7113.8
2015-Jun-30 02:25N 01°11' E 103°39'9 9.4
2015-Jun-30 01:27N 01°11' E 103°48'3 3.3
2015-Jun-30 00:28N 01°14' E 103°48'0 0.1
2015-Jun-29 23:22N 01°14' E 103°48'0 0.0
2015-Jun-29 22:28N 01°14' E 103°48'0 0.0
2015-Jun-29 21:22N 01°14' E 103°48'0 0.0
2015-Jun-29 20:33N 01°14' E 103°48'5 5.2
2015-Jun-29 19:33N 01°17' E 103°44'0 0.5
2015-Jun-29 18:32N 01°17' E 103°44'0 0.0
2015-Jun-29 17:29N 01°17' E 103°44'0 0.0
2015-Jun-29 16:32N 01°17' E 103°44'0 0.0
2015-Jun-29 15:29N 01°17' E 103°44'0 0.0
2015-Jun-29 14:32N 01°17' E 103°44'0 0.0
2015-Jun-29 13:23N 01°17' E 103°44'0 0.0
2015-Jun-29 12:29N 01°17' E 103°44'0 0.0
2015-Jun-29 11:20N 01°17' E 103°44'0 0.0
2015-Jun-29 10:32N 01°17' E 103°44'0 0.0
2015-Jun-29 09:32N 01°17' E 103°44'0 0.0
2015-Jun-29 08:29N 01°17' E 103°44'0 0.0
2015-Jun-29 07:32N 01°17' E 103°44'0 0.0
2015-Jun-29 06:14N 01°17' E 103°44'0 0.0
2015-Jun-29 05:26N 01°17' E 103°44'0 0.0
2015-Jun-29 04:32N 01°17' E 103°44'0 0.0
2015-Jun-29 03:32N 01°17' E 103°44'0 0.0
2015-Jun-29 02:29N 01°17' E 103°44'0 0.0
2015-Jun-29 01:32N 01°17' E 103°44'0 0.0
2015-Jun-28 23:32N 01°17' E 103°44'0 0.0
2015-Jun-28 22:29N 01°17' E 103°44'0 0.0
2015-Jun-28 21:32N 01°17' E 103°44'0 0.0
2015-Jun-28 20:32N 01°17' E 103°44'0 0.0
2015-Jun-28 19:23N 01°17' E 103°44'0 0.0
2015-Jun-28 18:32N 01°17' E 103°44'0 0.0
2015-Jun-28 17:23N 01°17' E 103°44'0 0.0
2015-Jun-28 16:32N 01°17' E 103°44'0 0.0
2015-Jun-28 15:32N 01°17' E 103°44'0 0.0
2015-Jun-28 14:23N 01°17' E 103°44'0 0.0
2015-Jun-28 13:32N 01°17' E 103°44'0 0.0
2015-Jun-28 12:32N 01°17' E 103°44'0 0.0
2015-Jun-28 11:29N 01°17' E 103°44'0 0.0
2015-Jun-28 10:08N 01°17' E 103°44'0 0.0
2015-Jun-28 09:17N 01°17' E 103°44'0 0.0
2015-Jun-28 08:20N 01°17' E 103°44'0 0.0
2015-Jun-28 07:32N 01°17' E 103°44'0 0.0
2015-Jun-28 05:26N 01°17' E 103°44'0 0.0
2015-Jun-28 04:32N 01°17' E 103°44'0 0.0
2015-Jun-28 03:20N 01°17' E 103°44'0 0.0
2015-Jun-28 01:32N 01°17' E 103°44'0 0.0
2015-Jun-28 00:26N 01°17' E 103°44'0 0.0
2015-Jun-27 23:32N 01°17' E 103°44'0 0.0
2015-Jun-27 22:32N 01°17' E 103°44'0 0.0
2015-Jun-27 21:29N 01°17' E 103°44'0 0.0
2015-Jun-27 20:29N 01°17' E 103°44'0 0.0
2015-Jun-27 19:26N 01°17' E 103°44'0 0.0
2015-Jun-27 18:23N 01°17' E 103°44'0 0.0
2015-Jun-27 17:29N 01°17' E 103°44'0 0.0
2015-Jun-27 15:26N 01°17' E 103°44'0 0.0
2015-Jun-27 14:26N 01°17' E 103°44'0 0.0
2015-Jun-27 13:20N 01°17' E 103°44'0 0.0
2015-Jun-27 12:23N 01°17' E 103°44'0 0.0
2015-Jun-27 11:32N 01°17' E 103°44'0 0.0
2015-Jun-27 10:32N 01°17' E 103°44'0 0.0
2015-Jun-27 09:32N 01°17' E 103°44'0 0.0
2015-Jun-27 08:26N 01°17' E 103°44'0 0.0
2015-Jun-27 07:23N 01°17' E 103°44'0 0.0
2015-Jun-27 06:29N 01°17' E 103°44'0 0.0
2015-Jun-27 05:32N 01°17' E 103°44'0 0.0
2015-Jun-27 04:26N 01°17' E 103°44'0 0.0
2015-Jun-27 03:32N 01°17' E 103°44'0 0.0
2015-Jun-27 02:29N 01°17' E 103°44'1 0.8
2015-Jun-27 01:33N 01°17' E 103°45'3 3.2
2015-Jun-27 00:33N 01°15' E 103°47'2 1.6
2015-Jun-26 23:17N 01°13' E 103°48'0 0.0
2015-Jun-26 22:29N 01°13' E 103°48'0 0.0
2015-Jun-26 21:29N 01°13' E 103°48'0 0.0
2015-Jun-26 20:29N 01°13' E 103°48'0 0.0
2015-Jun-26 19:29N 01°13' E 103°48'0 0.1
2015-Jun-26 18:29N 01°13' E 103°48'0 0.0
2015-Jun-26 17:29N 01°13' E 103°48'0 0.1
2015-Jun-26 16:14N 01°13' E 103°48'0 0.6
2015-Jun-26 15:33N 01°13' E 103°48'6 6.0
2015-Jun-26 14:33N 01°14' E 103°42'1 0.0
2015-Jun-24 22:30N 01°14' E 103°42'4 4.0
2015-Jun-24 21:33N 01°16' E 103°45'5 5.1
2015-Jun-24 20:33N 01°13' E 103°49'6 6.4
2015-Jun-24 19:34N 01°14' E 103°55'1 0.7
2015-Jun-24 18:16N 01°15' E 103°55'0 0.1
2015-Jun-24 17:22N 01°15' E 103°55'0 0.0
2015-Jun-24 16:16N 01°15' E 103°55'0 0.0
2015-Jun-24 15:16N 01°15' E 103°55'0 0.0
2015-Jun-24 14:28N 01°15' E 103°55'0 0.0
2015-Jun-24 13:28N 01°15' E 103°55'0 0.0
2015-Jun-24 11:28N 01°15' E 103°55'0 0.0
2015-Jun-24 10:22N 01°15' E 103°55'0 0.0
2015-Jun-24 09:28N 01°15' E 103°55'0 0.1
2015-Jun-24 08:25N 01°15' E 103°55'0 0.0
2015-Jun-24 07:31N 01°15' E 103°55'0 0.0
2015-Jun-24 06:22N 01°15' E 103°55'0 0.0
2015-Jun-24 05:28N 01°15' E 103°55'0 0.0
2015-Jun-24 04:28N 01°15' E 103°55'0 0.0
2015-Jun-24 03:28N 01°15' E 103°55'0 0.0
2015-Jun-24 02:31N 01°15' E 103°55'0 0.0
2015-Jun-24 01:25N 01°15' E 103°55'0 0.0
2015-Jun-24 00:22N 01°15' E 103°55'0 0.0
2015-Jun-23 23:31N 01°15' E 103°55'0 0.0
2015-Jun-23 22:28N 01°15' E 103°55'0 0.0
2015-Jun-23 21:31N 01°15' E 103°55'0 0.0
2015-Jun-23 20:31N 01°15' E 103°55'0 0.1
2015-Jun-23 19:28N 01°15' E 103°55'0 0.0
2015-Jun-23 19:01N 01°15' E 103°55'0 0.0
2015-Jun-22 18:22N 01°15' E 103°55'0 0.1
2015-Jun-22 17:28N 01°15' E 103°55'0 0.1
2015-Jun-22 16:28N 01°15' E 103°55'0 0.0
2015-Jun-22 15:28N 01°15' E 103°55'0 0.0
2015-Jun-22 14:28N 01°15' E 103°55'0 0.0
2015-Jun-22 13:31N 01°15' E 103°55'0 0.0
2015-Jun-22 12:28N 01°15' E 103°55'0 0.1
2015-Jun-22 11:33N 01°15' E 103°55'0 0.0
2015-Jun-22 10:33N 01°15' E 103°55'0 0.1
2015-Jun-22 09:31N 01°15' E 103°55'0 0.0
2015-Jun-22 08:33N 01°15' E 103°55'0 0.0
2015-Jun-22 07:33N 01°15' E 103°55'0 0.0
2015-Jun-22 06:32N 01°15' E 103°55'0 0.1
2015-Jun-22 05:33N 01°15' E 103°55'0 0.0
2015-Jun-22 04:33N 01°15' E 103°55'0 0.0
2015-Jun-22 03:33N 01°15' E 103°55'0 0.0
2015-Jun-22 02:32N 01°15' E 103°55'0 0.0
2015-Jun-22 01:33N 01°15' E 103°55'0 0.0
2015-Jun-22 00:33N 01°15' E 103°55'4 3.9
2015-Jun-21 23:33N 01°13' E 103°52'9 9.1
2015-Jun-21 22:33N 01°17' E 103°44'1 0.0
2015-Jun-20 22:31N 01°18' E 103°43'4 4.5
2015-Jun-20 21:33N 01°15' E 103°47'7 6.5
2015-Jun-20 20:33N 01°14' E 103°53'2 1.8
2015-Jun-20 19:33N 01°16' E 103°54'0 0.0
2015-Jun-20 18:27N 01°16' E 103°54'0 0.1
2015-Jun-20 17:33N 01°16' E 103°54'0 0.2
2015-Jun-20 16:33N 01°16' E 103°54'0 0.0
2015-Jun-20 15:27N 01°16' E 103°54'0 0.0
2015-Jun-20 14:27N 01°16' E 103°54'0 0.0
2015-Jun-20 13:27N 01°16' E 103°54'0 0.0
2015-Jun-20 12:21N 01°16' E 103°54'0 0.1
2015-Jun-20 11:15N 01°16' E 103°54'0 0.0
2015-Jun-20 10:12N 01°16' E 103°54'0 0.0
2015-Jun-20 09:33N 01°16' E 103°54'  

Dump ship's entire track history